Time;durP1;ratioP1;P1;durP2;ratioP2;P2;SDS_P1;SDS_P2;PMS_P1;PMS_P2;Temp;Humidity;BMP_temperature;BMP_pressure;BME280_temperature;BME280_humidity;BME280_pressure;Samples;Min_cycle;Max_cycle;Signal;HPM_P1;HPM_P2
2023/07/27 00:01:23;;;;;;;27.70;19.92;;;;;;;20.84;100.00;98958.63;1592110;90;21111;-67
2023/07/27 00:03:51;;;;;;;29.63;21.15;;;;;;;20.75;100.00;98951.48;1603167;89;21088;-68
2023/07/27 00:06:19;;;;;;;29.05;19.85;;;;;;;20.72;100.00;98951.25;1592499;89;21075;-68
2023/07/27 00:08:48;;;;;;;30.10;20.32;;;;;;;20.69;100.00;98936.55;1591283;90;21558;-66
2023/07/27 00:11:16;;;;;;;29.98;20.92;;;;;;;20.68;100.00;98943.23;1592082;88;21106;-67
2023/07/27 00:13:45;;;;;;;29.67;21.30;;;;;;;20.66;100.00;98934.36;1602937;89;21519;-67
2023/07/27 00:16:15;;;;;;;30.35;20.85;;;;;;;20.66;100.00;98927.41;1592671;89;21070;-67
2023/07/27 00:18:44;;;;;;;31.75;21.10;;;;;;;20.66;100.00;98926.02;1603130;89;21079;-66
2023/07/27 00:21:14;;;;;;;31.75;21.23;;;;;;;20.68;100.00;98925.14;1592517;90;21094;-67
2023/07/27 00:23:43;;;;;;;32.78;22.80;;;;;;;20.71;100.00;98927.33;1592374;88;21121;-69
2023/07/27 00:26:12;;;;;;;33.92;22.93;;;;;;;20.71;100.00;98917.59;1603014;89;21059;-67
2023/07/27 00:28:40;;;;;;;35.23;23.35;;;;;;;20.73;100.00;98915.33;1603189;88;21565;-67
2023/07/27 00:31:10;;;;;;;35.30;24.27;;;;;;;20.72;100.00;98922.03;1602786;89;21055;-68
2023/07/27 00:33:39;;;;;;;33.80;23.12;;;;;;;20.72;100.00;98924.25;1609328;88;21088;-67
2023/07/27 00:36:09;;;;;;;35.15;23.77;;;;;;;20.75;100.00;98918.64;1614914;88;21112;-67
2023/07/27 00:38:39;;;;;;;32.40;22.93;;;;;;;20.74;100.00;98910.03;1646539;87;21065;-68
2023/07/27 00:41:08;;;;;;;37.35;24.12;;;;;;;20.72;100.00;98913.11;1603820;89;21509;-67
2023/07/27 00:43:37;;;;;;;40.03;25.00;;;;;;;20.71;100.00;98904.50;1646879;87;21045;-69
2023/07/27 00:46:06;;;;;;;41.25;25.08;;;;;;;20.72;100.00;98906.72;1604045;89;21061;-68
2023/07/27 00:48:35;;;;;;;39.30;24.52;;;;;;;20.71;100.00;98891.98;1646862;87;21321;-66
2023/07/27 00:51:04;;;;;;;40.05;25.08;;;;;;;20.72;100.00;98898.37;1646782;87;21096;-67
2023/07/27 00:53:34;;;;;;;40.73;25.02;;;;;;;20.73;100.00;98898.63;1646922;87;21041;-66
2023/07/27 00:56:05;;;;;;;39.95;25.57;;;;;;;20.74;100.00;98894.72;1604100;89;21061;-67
2023/07/27 00:58:34;;;;;;;40.55;25.10;;;;;;;20.74;100.00;98898.33;1646919;87;21085;-68
2023/07/27 01:01:04;;;;;;;41.95;26.50;;;;;;;20.73;100.00;98906.98;1646962;86;21130;-67
2023/07/27 01:03:34;;;;;;;41.02;25.05;;;;;;;20.72;100.00;98918.68;1603986;89;21493;-67
2023/07/27 01:06:08;;;;;;;43.98;26.45;;;;;;;20.71;100.00;98919.81;1646994;87;21053;-66
2023/07/27 01:08:38;;;;;;;42.58;25.15;;;;;;;20.72;100.00;98911.72;1603929;89;21042;-67
2023/07/27 01:11:49;;;;;;;43.70;26.52;;;;;;;20.71;100.00;98902.28;1628786;87;21493;-66
2023/07/27 01:14:42;;;;;;;44.60;26.40;;;;;;;20.67;100.00;98887.31;1647053;86;21060;-66
2023/07/27 01:17:37;;;;;;;41.02;25.65;;;;;;;20.62;100.00;98893.78;1646818;87;21100;-68
2023/07/27 01:20:30;;;;;;;41.70;25.37;;;;;;;20.66;100.00;98896.79;1603936;89;21501;-66
2023/07/27 01:23:26;;;;;;;45.23;26.75;;;;;;;20.69;100.00;98895.63;1646996;87;21053;-71
2023/07/27 01:26:04;;;;;;;41.73;25.30;;;;;;;20.72;100.00;98902.55;1591423;89;21530;-67
2023/07/27 01:28:57;;;;;;;41.73;24.82;;;;;;;20.71;100.00;98912.02;1613625;88;21070;-68
2023/07/27 01:31:29;;;;;;;41.83;25.57;;;;;;;20.69;100.00;98923.45;1646801;86;21052;-67
2023/07/27 01:34:01;;;;;;;42.53;25.27;;;;;;;20.70;100.00;98921.50;1598409;89;21105;-66
2023/07/27 01:36:38;;;;;;;40.48;24.67;;;;;;;20.72;100.00;98908.11;1646769;87;21104;-67
2023/07/27 01:39:08;;;;;;;44.53;26.70;;;;;;;20.72;100.00;98887.23;1624190;86;21072;-67
2023/07/27 01:41:41;;;;;;;45.83;25.95;;;;;;;20.67;100.00;98878.96;1592547;89;21548;-67
2023/07/27 01:44:09;;;;;;;48.58;27.25;;;;;;;20.69;100.00;98876.70;1646861;87;21129;-67
2023/07/27 01:46:40;;;;;;;46.28;26.30;;;;;;;20.70;100.00;98877.80;1646810;86;21342;-66
2023/07/27 01:49:10;;;;;;;46.92;26.80;;;;;;;20.70;100.00;98863.88;1646858;86;21108;-66
2023/07/27 01:51:40;;;;;;;40.23;24.52;;;;;;;20.70;100.00;98869.44;1592824;88;21078;-66
2023/07/27 01:54:08;;;;;;;41.88;25.97;;;;;;;20.71;100.00;98866.09;1625034;87;21111;-67
2023/07/27 01:56:38;;;;;;;43.73;26.12;;;;;;;20.73;100.00;98873.02;1646812;87;21068;-67
2023/07/27 01:59:08;;;;;;;42.78;26.77;;;;;;;20.73;100.00;98864.66;1592503;89;21042;-67
2023/07/27 02:01:37;;;;;;;41.48;25.85;;;;;;;20.76;100.00;98860.45;1646969;87;21078;-67
2023/07/27 02:04:07;;;;;;;41.60;25.65;;;;;;;20.76;100.00;98845.97;1649979;86;21084;-67
2023/07/27 02:06:39;;;;;;;43.05;26.20;;;;;;;20.78;100.00;98845.66;1592610;89;21065;-67
2023/07/27 02:09:08;;;;;;;42.05;25.85;;;;;;;20.78;100.00;98839.53;1646568;85;21512;-66
2023/07/27 02:11:38;;;;;;;48.75;25.95;;;;;;;20.80;100.00;98837.84;1646743;86;21017;-66
2023/07/27 02:14:37;;;;;;;41.98;26.50;;;;;;;20.82;100.00;98839.79;1646908;87;21025;-67
2023/07/27 02:17:11;;;;;;;43.02;25.70;;;;;;;20.82;100.00;98844.78;1592331;88;21058;-67
2023/07/27 02:19:41;;;;;;;38.30;24.67;;;;;;;20.82;100.00;98852.31;1646694;87;21033;-66
2023/07/27 02:22:09;;;;;;;39.10;24.35;;;;;;;20.81;100.00;98851.48;1646830;86;21104;-66
2023/07/27 02:24:39;;;;;;;39.30;24.65;;;;;;;20.82;100.00;98850.92;1592434;89;21070;-66
2023/07/27 02:27:09;;;;;;;42.55;25.97;;;;;;;20.82;100.00;98844.78;1646731;87;21061;-66
2023/07/27 02:29:38;;;;;;;41.60;25.32;;;;;;;20.83;100.00;98828.91;1628622;87;21476;-66
2023/07/27 02:32:08;;;;;;;43.98;24.90;;;;;;;20.80;100.00;98798.87;1592965;88;21083;-70
2023/07/27 02:34:38;;;;;;;43.58;26.23;;;;;;;20.75;100.00;98765.55;1646941;86;21124;-67
2023/07/27 02:37:08;;;;;;;51.48;27.67;;;;;;;20.70;100.00;98726.67;1646857;87;21044;-69
2023/07/27 02:39:37;;;;;;;41.83;25.70;;;;;;;20.70;100.00;98708.02;1592592;89;21122;-68
2023/07/27 02:42:07;;;;;;;44.27;26.70;;;;;;;20.68;100.00;98719.19;1596451;90;21102;-65
2023/07/27 02:44:36;;;;;;;38.13;24.72;;;;;;;20.60;100.00;98767.20;1614864;88;21121;-66
2023/07/27 02:47:06;;;;;;;41.48;25.17;;;;;;;20.47;100.00;98818.31;1594472;88;21113;-66
2023/07/27 02:49:35;;;;;;;39.85;23.52;;;;;;;20.41;100.00;98851.51;1646652;86;21089;-66
2023/07/27 02:52:05;;;;;;;36.30;22.77;;;;;;;20.38;100.00;98852.08;1646845;87;21100;-66
2023/07/27 02:54:34;;;;;;;41.00;24.92;;;;;;;20.37;100.00;98861.55;1646835;86;21092;-65
2023/07/27 02:57:04;;;;;;;42.58;26.10;;;;;;;20.38;100.00;98865.98;1646833;87;21076;-67
2023/07/27 02:59:35;;;;;;;42.78;26.35;;;;;;;20.44;100.00;98885.69;1592483;89;21063;-67
2023/07/27 03:02:06;;;;;;;42.62;25.68;;;;;;;20.47;100.00;98893.43;1646764;87;21068;-66
2023/07/27 03:04:36;;;;;;;41.77;25.50;;;;;;;20.51;100.00;98890.88;1592805;89;21134;-67
2023/07/27 03:07:08;;;;;;;41.45;25.23;;;;;;;20.55;100.00;98880.23;1650283;85;21143;-67
2023/07/27 03:09:38;;;;;;;42.83;25.35;;;;;;;20.54;100.00;98870.23;1646872;86;21069;-68
2023/07/27 03:12:09;;;;;;;41.70;25.68;;;;;;;20.53;100.00;98853.28;1592485;89;21054;-68
2023/07/27 03:14:38;;;;;;;42.27;25.62;;;;;;;20.52;100.00;98837.71;1646974;86;21089;-70
2023/07/27 03:17:08;;;;;;;38.70;24.32;;;;;;;20.55;100.00;98854.38;1592481;89;21137;-68
2023/07/27 03:19:39;;;;;;;38.55;24.85;;;;;;;20.56;100.00;98872.72;1646714;87;21092;-68
2023/07/27 03:22:08;;;;;;;37.40;23.05;;;;;;;20.58;100.00;98883.81;1592906;89;21141;-68
2023/07/27 03:24:37;;;;;;;36.42;23.52;;;;;;;20.60;100.00;98904.38;1646696;86;21187;-68
2023/07/27 03:27:08;;;;;;;34.53;22.95;;;;;;;20.61;100.00;98933.04;1646503;87;21089;-66
2023/07/27 03:29:37;;;;;;;37.48;24.25;;;;;;;20.58;100.00;98941.42;1646807;86;21060;-66
2023/07/27 03:32:07;;;;;;;36.28;22.05;;;;;;;20.58;100.00;98938.64;1592642;88;21094;-67
2023/07/27 03:34:37;;;;;;;34.58;21.90;;;;;;;20.60;100.00;98946.69;1644693;86;21088;-67
2023/07/27 03:37:08;;;;;;;35.28;22.42;;;;;;;20.61;100.00;98955.30;1645425;85;21145;-67
2023/07/27 03:39:38;;;;;;;31.25;20.55;;;;;;;20.61;100.00;98960.88;1642350;87;21122;-70
2023/07/27 03:42:07;;;;;;;30.32;19.73;;;;;;;20.62;100.00;98955.56;1642436;86;21045;-68
2023/07/27 03:44:38;;;;;;;30.20;20.43;;;;;;;20.63;100.00;98946.92;1642396;87;21067;-67
2023/07/27 03:47:08;;;;;;;33.40;21.48;;;;;;;20.63;100.00;98941.92;1592914;89;21142;-67
2023/07/27 03:49:37;;;;;;;33.90;22.22;;;;;;;20.64;100.00;98926.31;1592445;90;21066;-67
2023/07/27 03:52:10;;;;;;;35.10;23.02;;;;;;;20.64;100.00;98916.57;1642261;86;21077;-66
2023/07/27 03:54:41;;;;;;;34.30;22.25;;;;;;;20.63;100.00;98897.39;1641949;87;21049;-67
2023/07/27 03:57:11;;;;;;;33.83;21.07;;;;;;;20.62;100.00;98872.08;1642218;86;21064;-68
2023/07/27 03:59:42;;;;;;;29.30;19.77;;;;;;;20.62;100.00;98863.73;1592843;89;21118;-68
2023/07/27 04:02:11;;;;;;;25.62;18.23;;;;;;;20.63;100.00;98826.42;1603099;88;21095;-67
2023/07/27 04:04:42;;;;;;;31.02;19.92;;;;;;;20.61;100.00;98823.12;1592733;88;21498;-68
2023/07/27 04:07:11;;;;;;;31.48;19.73;;;;;;;20.60;100.00;98851.51;1603441;88;21305;-68
2023/07/27 04:09:43;;;;;;;31.37;20.95;;;;;;;20.57;100.00;98907.20;1592541;90;21062;-69
2023/07/27 04:12:12;;;;;;;30.75;21.37;;;;;;;20.54;100.00;98917.55;1602882;89;21665;-67
2023/07/27 04:14:42;;;;;;;30.82;20.43;;;;;;;20.56;100.00;98926.98;1592526;89;21095;-67
2023/07/27 04:17:11;;;;;;;27.65;20.25;;;;;;;20.59;100.00;98920.81;1592203;90;21502;-65
2023/07/27 04:19:41;;;;;;;27.15;19.42;;;;;;;20.62;100.00;98905.47;1592355;90;21062;-65
2023/07/27 04:22:11;;;;;;;30.05;20.15;;;;;;;20.65;100.00;98900.70;1641657;87;21527;-64
2023/07/27 04:24:44;;;;;;;32.63;22.50;;;;;;;20.65;100.00;98916.01;1642278;87;21509;-66
2023/07/27 04:27:12;;;;;;;33.20;20.30;;;;;;;20.66;100.00;98921.84;1642381;87;21056;-64
2023/07/27 04:29:42;;;;;;;29.52;20.00;;;;;;;20.67;100.00;98924.32;1592760;89;21074;-66
2023/07/27 04:32:12;;;;;;;28.57;20.97;;;;;;;20.70;100.00;98900.62;1592479;89;21533;-65
2023/07/27 04:34:41;;;;;;;33.35;22.27;;;;;;;20.67;100.00;98878.40;1607550;89;21053;-65
2023/07/27 04:37:10;;;;;;;30.35;21.42;;;;;;;20.69;100.00;98910.10;1647096;87;21088;-65
2023/07/27 04:39:39;;;;;;;31.93;22.02;;;;;;;20.72;100.00;98913.11;1604030;89;21057;-64
2023/07/27 04:42:08;;;;;;;33.30;22.45;;;;;;;20.75;100.00;98920.03;1646797;86;21562;-65
2023/07/27 04:44:37;;;;;;;33.58;21.85;;;;;;;20.78;100.00;98926.39;1603964;89;21057;-66
2023/07/27 04:47:06;;;;;;;35.85;23.67;;;;;;;20.78;100.00;98904.13;1646842;87;21579;-66
2023/07/27 04:49:37;;;;;;;31.75;21.48;;;;;;;20.79;100.00;98916.91;1647056;86;21025;-65
2023/07/27 04:52:07;;;;;;;33.00;21.42;;;;;;;20.79;100.00;98929.44;1647080;86;21068;-65
2023/07/27 04:54:36;;;;;;;28.38;19.30;;;;;;;20.78;100.00;98931.39;1604018;88;21086;-65
2023/07/27 04:57:06;;;;;;;26.87;18.07;;;;;;;20.77;100.00;98934.48;1646909;86;21052;-66
2023/07/27 04:59:36;;;;;;;25.95;17.57;;;;;;;20.71;100.00;98921.20;1647056;87;21104;-67
2023/07/27 05:02:06;;;;;;;25.17;17.05;;;;;;;20.68;100.00;98909.27;1646965;87;21509;-67
2023/07/27 05:04:35;;;;;;;21.68;14.73;;;;;;;20.66;100.00;98914.31;1572482;91;21194;-66
2023/07/27 05:07:06;;;;;;;17.17;13.45;;;;;;;20.67;100.00;98915.14;1572640;91;21095;-66
2023/07/27 05:09:36;;;;;;;18.42;13.40;;;;;;;20.66;100.00;98900.40;1580681;91;21056;-68
2023/07/27 05:12:07;;;;;;;17.05;11.90;;;;;;;20.67;100.00;98883.13;1602656;88;21546;-69
2023/07/27 05:14:37;;;;;;;16.15;12.25;;;;;;;20.63;100.00;98877.91;1572135;91;21126;-66
2023/07/27 05:17:07;;;;;;;18.10;12.93;;;;;;;20.61;100.00;98870.42;1572320;91;21115;-67
2023/07/27 05:19:37;;;;;;;17.70;12.47;;;;;;;20.58;100.00;98871.29;1580539;91;21091;-66
2023/07/27 05:22:06;;;;;;;16.73;11.93;;;;;;;20.56;100.00;98866.59;1613232;87;21124;-67
2023/07/27 05:24:37;;;;;;;17.25;12.15;;;;;;;20.54;100.00;98854.94;1646808;87;21069;-66
2023/07/27 05:27:07;;;;;;;16.02;12.00;;;;;;;20.55;100.00;98857.98;1646918;87;21100;-66
2023/07/27 05:29:38;;;;;;;17.23;11.53;;;;;;;20.59;100.00;98870.73;1650314;85;21047;-66
2023/07/27 05:32:09;;;;;;;16.90;12.18;;;;;;;20.60;100.00;98863.20;1604068;89;21070;-67
2023/07/27 05:34:39;;;;;;;18.42;12.35;;;;;;;20.62;100.00;98853.99;1598113;89;21511;-67
2023/07/27 05:37:08;;;;;;;22.42;11.10;;;;;;;20.63;100.00;98840.34;1642492;87;21068;-68
2023/07/27 05:39:37;;;;;;;15.95;11.57;;;;;;;20.64;100.00;98832.25;1642565;87;21437;-65
2023/07/27 05:42:07;;;;;;;16.73;11.73;;;;;;;20.65;100.00;98815.81;1592778;89;21085;-67
2023/07/27 05:44:36;;;;;;;19.67;13.10;;;;;;;20.67;100.00;98819.95;1592235;88;21050;-66
2023/07/27 05:47:06;;;;;;;18.98;12.37;;;;;;;20.70;100.00;98817.13;1592041;88;21489;-68
2023/07/27 05:49:35;;;;;;;16.40;11.30;;;;;;;20.75;100.00;98817.05;1592357;90;21042;-66
2023/07/27 05:52:05;;;;;;;17.73;12.75;;;;;;;20.82;100.00;98814.73;1642179;86;21514;-68
2023/07/27 05:54:34;;;;;;;18.32;12.33;;;;;;;20.87;100.00;98810.47;1642132;87;21500;-68
2023/07/27 05:57:05;;;;;;;17.55;11.75;;;;;;;20.92;100.00;98799.81;1592685;88;21047;-70
2023/07/27 05:59:34;;;;;;;18.15;14.00;;;;;;;21.00;100.00;98798.55;1575126;90;21512;-67
2023/07/27 06:02:03;;;;;;;17.98;13.05;;;;;;;21.07;100.00;98805.94;1641428;87;21457;-69
2023/07/27 06:04:32;;;;;;;15.78;11.93;;;;;;;21.14;100.00;98811.12;1623985;87;21512;-69
2023/07/27 06:07:01;;;;;;;15.35;11.63;;;;;;;21.22;100.00;98821.55;1624156;87;21069;-68
2023/07/27 06:09:30;;;;;;;16.73;12.35;;;;;;;21.30;100.00;98825.05;1642198;87;21096;-68
2023/07/27 06:12:02;;;;;;;14.18;11.22;;;;;;;21.35;100.00;98827.75;1642417;86;21069;-68
2023/07/27 06:14:34;;;;;;;21.27;14.28;;;;;;;21.41;100.00;98832.66;1642455;86;21049;-67
2023/07/27 06:17:04;;;;;;;14.35;11.73;;;;;;;21.45;100.00;98833.13;1642307;86;21219;-69
2023/07/27 06:19:34;;;;;;;15.70;12.05;;;;;;;21.51;100.00;98833.89;1642408;87;21053;-69
2023/07/27 06:22:05;;;;;;;15.45;12.58;;;;;;;21.56;100.00;98836.58;1645731;86;21551;-67
2023/07/27 06:24:35;;;;;;;16.10;12.05;;;;;;;21.60;100.00;98836.80;1642595;87;21081;-67
2023/07/27 06:27:06;;;;;;;14.87;11.78;;;;;;;21.62;100.00;98843.71;1592586;89;21089;-67
2023/07/27 06:29:36;;;;;;;14.53;12.15;;;;;;;21.63;100.00;98847.33;1603230;88;21099;-68
2023/07/27 06:32:06;;;;;;;15.30;11.60;;;;;;;21.64;100.00;98849.80;1642539;87;21149;-67
2023/07/27 06:34:35;;;;;;;17.25;14.03;;;;;;;21.65;100.00;98847.27;1592135;89;21065;-67
2023/07/27 06:37:07;;;;;;;13.58;11.78;;;;;;;21.66;100.00;98844.75;1617429;87;21096;-67
2023/07/27 06:39:37;;;;;;;12.65;10.78;;;;;;;21.66;100.00;98846.14;1580108;89;21086;-69
2023/07/27 06:42:07;;;;;;;13.10;11.18;;;;;;;21.67;100.00;98849.75;1617546;88;21078;-69
2023/07/27 06:44:36;;;;;;;14.73;11.85;;;;;;;21.67;100.00;98858.94;1617548;89;21065;-68
2023/07/27 06:47:05;;;;;;;14.05;12.25;;;;;;;21.66;100.00;98864.83;1579952;89;21430;-69
2023/07/27 06:49:36;;;;;;;15.35;12.00;;;;;;;21.67;100.00;98868.70;1617493;88;21093;-69
2023/07/27 06:52:08;;;;;;;15.63;13.08;;;;;;;21.68;100.00;98877.89;1617624;89;21182;-68
2023/07/27 06:54:38;;;;;;;14.78;11.63;;;;;;;21.67;100.00;98878.45;1580153;91;21077;-70
2023/07/27 06:57:10;;;;;;;13.32;11.20;;;;;;;21.68;100.00;98882.89;1617925;88;21073;-71
2023/07/27 06:59:40;;;;;;;16.40;11.95;;;;;;;21.68;100.00;98880.11;1617682;87;21125;-69
2023/07/27 07:02:11;;;;;;;17.07;12.43;;;;;;;21.64;100.00;98876.84;1617544;89;21104;-68
2023/07/27 07:04:40;;;;;;;15.38;11.63;;;;;;;21.64;100.00;98873.50;1579974;91;21115;-67
2023/07/27 07:07:11;;;;;;;14.70;11.50;;;;;;;21.62;100.00;98877.16;1617516;88;21129;-66
2023/07/27 07:09:42;;;;;;;17.80;12.78;;;;;;;21.63;100.00;98873.80;1617423;89;21509;-67
2023/07/27 07:12:12;;;;;;;16.15;12.82;;;;;;;21.63;100.00;98867.66;1580072;91;21041;-66
2023/07/27 07:14:42;;;;;;;15.85;12.33;;;;;;;21.61;100.00;98865.75;1617655;87;21152;-65
2023/07/27 07:17:12;;;;;;;19.77;13.78;;;;;;;21.57;100.00;98865.28;1617275;87;21307;-66
2023/07/27 07:19:41;;;;;;;16.50;12.60;;;;;;;21.52;100.00;98866.20;1580158;91;21085;-66
2023/07/27 07:22:10;;;;;;;17.07;14.07;;;;;;;21.48;100.00;98861.81;1617677;88;21108;-67
2023/07/27 07:24:39;;;;;;;19.45;14.68;;;;;;;21.48;100.00;98875.74;1579712;91;21521;-66
2023/07/27 07:27:09;;;;;;;20.77;15.28;;;;;;;21.51;100.00;98880.70;1617461;87;21102;-65
2023/07/27 07:29:39;;;;;;;17.12;13.85;;;;;;;21.54;100.00;98886.80;1579922;89;21147;-65
2023/07/27 07:32:08;;;;;;;19.70;14.25;;;;;;;21.54;100.00;98889.02;1618760;87;21104;-66
2023/07/27 07:34:37;;;;;;;18.75;15.15;;;;;;;21.53;100.00;98884.58;1579866;91;21093;-65
2023/07/27 07:37:06;;;;;;;15.28;12.60;;;;;;;21.51;100.00;98887.67;1624123;87;21101;-68
2023/07/27 07:39:37;;;;;;;15.00;11.05;;;;;;;21.53;100.00;98889.33;1580499;90;21098;-66
2023/07/27 07:42:06;;;;;;;17.80;13.13;;;;;;;21.53;100.00;98890.15;1575762;89;21042;-67
2023/07/27 07:44:36;;;;;;;14.25;10.80;;;;;;;21.53;100.00;98892.94;1565197;91;21516;-69
2023/07/27 07:47:05;;;;;;;15.95;11.75;;;;;;;21.54;100.00;98890.41;1565157;92;21566;-69
2023/07/27 07:49:34;;;;;;;15.98;12.33;;;;;;;21.53;100.00;98891.55;1565203;92;21122;-69
2023/07/27 07:52:04;;;;;;;14.70;11.68;;;;;;;21.53;100.00;98887.92;1621163;86;21130;-69
2023/07/27 07:54:33;;;;;;;15.30;12.05;;;;;;;21.55;100.00;98890.67;1613270;89;21075;-66
2023/07/27 07:57:02;;;;;;;14.25;11.70;;;;;;;21.57;100.00;98887.58;1614383;87;21450;-67
2023/07/27 07:59:32;;;;;;;15.10;11.90;;;;;;;21.62;100.00;98887.48;1625327;87;21101;-66
2023/07/27 08:02:02;;;;;;;13.62;10.68;;;;;;;21.65;100.00;98892.44;1647708;87;21523;-66
2023/07/27 08:04:32;;;;;;;12.53;9.55;;;;;;;21.67;100.00;98892.39;1647512;86;21495;-65
2023/07/27 08:07:02;;;;;;;12.20;8.90;;;;;;;21.67;100.00;98897.14;1649102;87;21074;-69
2023/07/27 08:09:31;;;;;;;10.98;9.40;;;;;;;21.66;100.00;98908.86;1650757;87;21030;-66
2023/07/27 08:12:00;;;;;;;13.15;10.50;;;;;;;21.68;100.00;98905.77;1653507;85;21169;-71
2023/07/27 08:14:30;;;;;;;11.88;9.63;;;;;;;21.69;100.00;98908.25;1653472;85;21094;-70
2023/07/27 08:16:58;;;;;;;12.05;9.55;;;;;;;21.73;100.00;98906.50;1634895;87;21109;-68
2023/07/27 08:19:27;;;;;;;10.30;9.15;;;;;;;21.74;100.00;98905.93;1653639;87;21026;-67
2023/07/27 08:21:56;;;;;;;12.98;10.80;;;;;;;21.74;100.00;98901.75;1653651;85;21034;-69
2023/07/27 08:24:25;;;;;;;13.13;10.40;;;;;;;21.73;100.00;98905.10;1653533;85;21053;-69
2023/07/27 08:26:54;;;;;;;12.15;10.10;;;;;;;21.71;100.00;98904.58;1649529;87;21642;-68
2023/07/27 08:29:23;;;;;;;9.93;8.45;;;;;;;21.73;100.00;98913.47;1647719;86;21083;-70
2023/07/27 08:31:52;;;;;;;9.30;6.97;;;;;;;21.74;100.00;98920.70;1618039;87;21064;-68
2023/07/27 08:34:20;;;;;;;8.40;6.17;;;;;;;21.76;100.00;98915.64;1618087;89;21533;-68
2023/07/27 08:36:50;;;;;;;9.95;7.05;;;;;;;21.77;100.00;98917.30;1622174;88;21593;-68
2023/07/27 08:39:19;;;;;;;17.17;12.13;;;;;;;21.76;100.00;98920.39;1623908;87;21054;-68
2023/07/27 08:41:48;;;;;;;11.73;10.20;;;;;;;21.77;100.00;98922.87;1623541;88;21030;-70
2023/07/27 08:44:17;;;;;;;8.00;7.20;;;;;;;;;;1604212;88;21122;-71
2023/07/27 08:46:47;;;;;;;7.97;4.80;;;;;;;21.77;100.00;98932.63;1623761;87;21032;-69
2023/07/27 08:49:16;;;;;;;6.62;4.20;;;;;;;21.76;100.00;98932.94;1623909;88;21090;-69
2023/07/27 08:51:45;;;;;;;3.17;2.90;;;;;;;21.73;100.00;98936.34;1623809;88;21051;-67
2023/07/27 08:54:14;;;;;;;5.75;3.98;;;;;;;21.70;100.00;98942.53;1623711;88;21102;-67
2023/07/27 08:56:43;;;;;;;4.92;4.00;;;;;;;21.65;100.00;98935.08;1623786;88;21099;-67
2023/07/27 08:59:13;;;;;;;6.30;4.75;;;;;;;21.63;100.00;98937.91;1623817;88;21084;-67
2023/07/27 09:01:42;;;;;;;8.18;6.28;;;;;;;21.62;100.00;98925.94;1639706;87;21111;-66
2023/07/27 09:04:12;;;;;;;6.53;4.70;;;;;;;21.67;100.00;98925.02;1643870;86;21087;-68
2023/07/27 09:06:44;;;;;;;6.53;5.67;;;;;;;21.71;100.00;98921.31;1640585;87;21111;-69
2023/07/27 09:09:17;;;;;;;9.98;8.98;;;;;;;21.72;100.00;98928.54;1640719;87;21106;-68
2023/07/27 09:11:46;;;;;;;5.28;4.10;;;;;;;;;;1640929;87;21103;-71
2023/07/27 09:14:19;;;;;;;5.55;3.67;;;;;;;21.83;100.00;98927.78;1641046;87;21059;-70
2023/07/27 09:16:49;;;;;;;5.03;3.83;;;;;;;21.86;100.00;98926.34;1640729;87;21471;-68
2023/07/27 09:19:19;;;;;;;5.12;4.28;;;;;;;21.84;100.00;98921.90;1640689;87;21080;-70
2023/07/27 09:21:49;;;;;;;8.38;4.85;;;;;;;21.86;100.00;98931.91;1640972;87;21510;-70
2023/07/27 09:24:18;;;;;;;4.50;4.10;;;;;;;21.85;100.00;98926.91;1640670;87;21155;-71
2023/07/27 09:26:51;;;;;;;5.90;4.30;;;;;;;21.89;100.00;98935.48;1640863;87;21056;-71
2023/07/27 09:29:21;;;;;;;4.87;4.30;;;;;;;21.91;100.00;98930.42;1640965;87;21095;-71
2023/07/27 09:31:57;;;;;;;11.03;6.17;;;;;;;21.94;100.00;98935.39;1640791;87;21091;-70
2023/07/27 09:34:28;;;;;;;9.65;8.60;;;;;;;21.98;100.00;98936.42;1623343;87;21088;-69
2023/07/27 09:37:02;;;;;;;6.92;5.33;;;;;;;22.02;100.00;98938.28;1640644;86;21875;-69
2023/07/27 09:39:35;;;;;;;4.78;3.50;;;;;;;22.12;100.00;98941.51;1640595;87;21702;-69
2023/07/27 09:42:07;;;;;;;3.85;2.75;;;;;;;22.23;100.00;98940.73;1640665;87;21471;-70
2023/07/27 09:44:50;;;;;;;5.50;3.58;;;;;;;22.35;100.00;98936.86;1622793;87;21621;-69
2023/07/27 09:47:23;;;;;;;2.90;2.55;;;;;;;22.46;100.00;98935.50;1640894;87;21066;-69
2023/07/27 09:49:53;;;;;;;3.65;2.98;;;;;;;22.57;100.00;98943.09;1640775;87;21047;-71
2023/07/27 09:52:22;;;;;;;5.10;3.95;;;;;;;22.62;100.00;98941.58;1640634;87;21072;-69
2023/07/27 09:54:52;;;;;;;4.97;4.20;;;;;;;22.65;99.83;98939.56;1640615;87;21207;-71
2023/07/27 09:57:22;;;;;;;6.33;4.97;;;;;;;22.62;98.13;98941.02;1640750;87;21087;-70
2023/07/27 09:59:50;;;;;;;5.87;5.22;;;;;;;22.54;95.88;98938.12;1637323;87;21055;-70
2023/07/27 10:02:20;;;;;;;7.55;6.72;;;;;;;22.48;95.92;98936.02;1653862;87;21108;-70
2023/07/27 10:04:51;;;;;;;7.40;6.40;;;;;;;22.46;96.25;98925.73;1632677;87;21469;-69
2023/07/27 10:07:21;;;;;;;6.87;6.17;;;;;;;22.55;96.33;98924.42;1653821;86;21088;-69
2023/07/27 10:10:11;;;;;;;9.23;7.35;;;;;;;22.66;96.36;98921.09;1653167;87;21138;-69
2023/07/27 10:12:40;;;;;;;8.53;6.47;;;;;;;22.75;94.87;98940.73;1615834;87;21108;-70
2023/07/27 10:15:20;;;;;;;8.30;6.47;;;;;;;22.73;92.60;98941.61;1653601;87;21092;-69
2023/07/27 10:18:01;;;;;;;8.20;7.37;;;;;;;22.71;91.58;98932.72;1654062;86;21120;-69
2023/07/27 10:20:33;;;;;;;7.92;6.85;;;;;;;22.68;90.62;98937.53;1653738;87;21110;-68
2023/07/27 10:23:10;;;;;;;7.45;6.67;;;;;;;22.69;90.31;98945.59;1653881;87;21554;-70
2023/07/27 10:26:01;;;;;;;8.03;6.53;;;;;;;22.73;90.33;98952.78;1654064;86;21767;-70
2023/07/27 10:28:38;;;;;;;9.28;7.50;;;;;;;22.75;89.43;98950.50;1654075;86;21100;-68
2023/07/27 10:31:25;;;;;;;7.65;6.90;;;;;;;22.73;88.41;98949.41;1653960;87;21616;-74
2023/07/27 10:34:16;;;;;;;9.63;7.22;;;;;;;22.75;87.92;98947.70;1654290;87;21056;-67
2023/07/27 10:36:59;;;;;;;8.25;7.10;;;;;;;22.73;87.43;98953.61;1651385;86;21136;-67
2023/07/27 10:39:50;;;;;;;10.40;7.00;;;;;;;22.70;85.26;98953.41;1651162;87;21089;-67
2023/07/27 10:42:23;;;;;;;9.83;7.30;;;;;;;22.63;85.31;98973.38;1649853;87;21124;-66
2023/07/27 10:44:55;;;;;;;7.80;7.00;;;;;;;22.49;85.47;98994.06;1649652;87;21488;-70
2023/07/27 10:47:33;;;;;;;7.65;6.85;;;;;;;22.36;87.04;98981.19;1649839;87;21091;-68
2023/07/27 10:50:03;;;;;;;8.20;6.75;;;;;;;22.33;88.22;98973.45;1650014;87;21061;-70
2023/07/27 10:52:36;;;;;;;8.23;6.92;;;;;;;22.34;88.82;98978.45;1649916;87;21096;-70
2023/07/27 10:55:08;;;;;;;9.53;7.80;;;;;;;22.32;88.30;98974.58;1649849;86;21132;-70
2023/07/27 10:57:38;;;;;;;8.10;6.30;;;;;;;22.37;88.18;98985.64;1650252;87;21100;-69
2023/07/27 11:00:09;;;;;;;8.33;6.40;;;;;;;22.44;87.60;98986.05;1657218;86;21064;-70
2023/07/27 11:02:40;;;;;;;9.83;6.45;;;;;;;22.53;86.19;98988.12;1673822;84;21140;-71
2023/07/27 11:05:10;;;;;;;7.75;6.17;;;;;;;22.53;84.33;99001.51;1673779;84;21517;-69
2023/07/27 11:07:42;;;;;;;6.50;5.90;;;;;;;22.48;83.16;99004.41;1673878;84;21477;-68
2023/07/27 11:10:18;;;;;;;6.10;5.50;;;;;;;22.44;82.52;99012.57;1673844;86;21049;-67
2023/07/27 11:12:53;;;;;;;6.20;5.60;;;;;;;22.32;81.49;99015.61;1673842;84;21081;-69
2023/07/27 11:15:28;;;;;;;5.62;5.12;;;;;;;22.14;81.14;99004.22;1673942;84;21045;-70
2023/07/27 11:17:59;;;;;;;6.85;4.70;;;;;;;22.01;80.89;99003.57;1673966;86;21086;-71
2023/07/27 11:20:28;;;;;;;5.58;4.55;;;;;;;21.95;81.64;99000.62;1673741;84;21112;-69
2023/07/27 11:22:58;;;;;;;4.65;4.25;;;;;;;21.96;82.16;99005.63;1674032;84;21531;-69
2023/07/27 11:25:32;;;;;;;4.67;4.10;;;;;;;22.03;82.03;99008.88;1654784;85;21492;-70
2023/07/27 11:28:01;;;;;;;4.58;4.17;;;;;;;22.10;81.14;99010.70;1654847;85;21492;-71
2023/07/27 11:30:31;;;;;;;4.40;4.00;;;;;;;22.10;80.67;99009.30;1673641;84;21041;-71
2023/07/27 11:33:05;;;;;;;4.40;4.00;;;;;;;22.13;80.66;99016.52;1673902;84;21100;-70
2023/07/27 11:35:46;;;;;;;4.20;3.80;;;;;;;22.17;80.59;99011.15;1674027;84;21080;-73